Airfield :
LOGIN :

Register | Disclaimer

   EN    FR    IT 

 










Legend :    VFR   Marginal VFR   IFR   Intensive IFR   Very Intensive IFR
Visi :
Ceiling :
>= 8 km
>= 3000ft
5 to 8 km
1000 to 3000 ft
1500m to 5 km
500 to 1000 ft
800 to 1500m
200 to 500 ft
< 800m
< 200 ft
Symbols :   Thunderstorms  Fog  Heavy snow  Heavy precipitations  Wind > 20 kt
SIGMETs :     Misc.  Thunderstorms  Icing  Turbulence  Mountain Waves  Volcanic Ashes







- Airport Elevation : 1742 ft
- IATA code : SOF


LBSF - Sofia Int.

CURRENT METAR :
  • 170400Z 12003KT 080V150 6000 NSC M05/M06 Q1028 TEMPO 4000 BR

EXPIRED METARs :
  • 170330Z 08002KT 5000 BR NSC M05/M06 Q1028 TEMPO 3000 BR
  • 170300Z VRB01KT 5000 BR NSC M04/M05 Q1028 TEMPO 3000 BR
  • 170230Z 33001KT 7000 NSC M04/M05 Q1028 NOSIG
  • 170200Z VRB01KT 7000 NSC M04/M06 Q1028 NOSIG
  • 170130Z 00000KT 7000 NSC M03/M04 Q1028 NOSIG

TAF TAF LBSF
Valid from the 17 at 00:00 until the 18 at 00:00 UTC


162300Z 1700/1724 VRB04KT 7000 NSC
BECMG 1701/1703 4000 BR SCT015
TEMPO 1704/1706 2000 BR
BECMG 1707/1709 CAVOK
No reported NOTAMs for that airfield.



MET'MAP, your aeronautical weather chart ! - Copyright ORBIFLY December 2007 - Disclaimer

ORBIFLY MET'MAP TEAM :

Programming & Development : Alexandra Zaïnal
Concept & Development : Baudouin d'Aumeries
Co-Development & Prog : Marc-Olivier Méhu
Technical & hardware support : Manuel Goepfert

Contact : metmap@orbifly.com




SOURCES & CREDITS :

   NOAA